sensor_id;sensor_type;location;lat;lon;timestamp;temperature;humidity
20911;DHT22;10615;42.702;23.314;2023-06-14T00:00:53;17.50;99.90
20911;DHT22;10615;42.702;23.314;2023-06-14T00:01:54;17.50;99.90
20911;DHT22;10615;42.702;23.314;2023-06-14T00:02:55;17.50;99.90
20911;DHT22;10615;42.702;23.314;2023-06-14T00:03:56;17.50;99.90
20911;DHT22;10615;42.702;23.314;2023-06-14T00:04:56;17.50;99.90
20911;DHT22;10615;42.702;23.314;2023-06-14T00:05:57;17.50;99.90
20911;DHT22;10615;42.702;23.314;2023-06-14T00:06:57;17.50;99.90
20911;DHT22;10615;42.702;23.314;2023-06-14T00:07:58;17.50;99.90
20911;DHT22;10615;42.702;23.314;2023-06-14T00:09:00;17.50;99.90
20911;DHT22;10615;42.702;23.314;2023-06-14T00:10:02;17.50;99.90
20911;DHT22;10615;42.702;23.314;2023-06-14T00:11:02;17.50;99.90
20911;DHT22;10615;42.702;23.314;2023-06-14T00:12:03;17.50;99.90
20911;DHT22;10615;42.702;23.314;2023-06-14T00:13:03;17.50;99.90
20911;DHT22;10615;42.702;23.314;2023-06-14T00:14:05;17.50;99.90
20911;DHT22;10615;42.702;23.314;2023-06-14T00:15:05;17.40;99.90
20911;DHT22;10615;42.702;23.314;2023-06-14T00:16:06;17.40;99.90
20911;DHT22;10615;42.702;23.314;2023-06-14T00:17:07;17.40;99.90
20911;DHT22;10615;42.702;23.314;2023-06-14T00:18:07;17.40;99.90
20911;DHT22;10615;42.702;23.314;2023-06-14T00:19:08;17.40;99.90
20911;DHT22;10615;42.702;23.314;2023-06-14T00:20:10;17.40;99.90
20911;DHT22;10615;42.702;23.314;2023-06-14T00:21:11;17.40;99.90
20911;DHT22;10615;42.702;23.314;2023-06-14T00:22:12;17.30;99.90
20911;DHT22;10615;42.702;23.314;2023-06-14T00:23:12;17.30;99.90
20911;DHT22;10615;42.702;23.314;2023-06-14T00:24:13;17.30;99.90
20911;DHT22;10615;42.702;23.314;2023-06-14T00:25:13;17.30;99.90
20911;DHT22;10615;42.702;23.314;2023-06-14T00:26:14;17.30;99.90
20911;DHT22;10615;42.702;23.314;2023-06-14T00:27:15;17.30;99.90
20911;DHT22;10615;42.702;23.314;2023-06-14T00:28:15;17.30;99.90
20911;DHT22;10615;42.702;23.314;2023-06-14T00:29:16;17.30;99.90
20911;DHT22;10615;42.702;23.314;2023-06-14T00:30:16;17.30;99.90
20911;DHT22;10615;42.702;23.314;2023-06-14T00:31:17;17.30;99.90
20911;DHT22;10615;42.702;23.314;2023-06-14T00:32:18;17.30;99.90
20911;DHT22;10615;42.702;23.314;2023-06-14T00:33:18;17.30;99.90
20911;DHT22;10615;42.702;23.314;2023-06-14T00:34:19;17.30;99.90
20911;DHT22;10615;42.702;23.314;2023-06-14T00:35:20;17.30;99.90
20911;DHT22;10615;42.702;23.314;2023-06-14T00:36:20;17.30;99.90
20911;DHT22;10615;42.702;23.314;2023-06-14T00:37:21;17.30;99.90
20911;DHT22;10615;42.702;23.314;2023-06-14T00:38:22;17.30;99.90
20911;DHT22;10615;42.702;23.314;2023-06-14T00:39:22;17.20;99.90
20911;DHT22;10615;42.702;23.314;2023-06-14T00:40:23;17.20;99.90
20911;DHT22;10615;42.702;23.314;2023-06-14T00:41:24;17.30;99.90
20911;DHT22;10615;42.702;23.314;2023-06-14T00:42:26;17.20;99.90
20911;DHT22;10615;42.702;23.314;2023-06-14T00:43:27;17.30;99.90
20911;DHT22;10615;42.702;23.314;2023-06-14T00:44:27;17.30;99.90
20911;DHT22;10615;42.702;23.314;2023-06-14T00:45:28;17.30;99.90
20911;DHT22;10615;42.702;23.314;2023-06-14T00:46:28;17.30;99.90
20911;DHT22;10615;42.702;23.314;2023-06-14T00:47:29;17.30;99.90
20911;DHT22;10615;42.702;23.314;2023-06-14T00:48:29;17.30;99.90
20911;DHT22;10615;42.702;23.314;2023-06-14T00:49:30;17.30;99.90
20911;DHT22;10615;42.702;23.314;2023-06-14T00:50:31;17.20;99.90
20911;DHT22;10615;42.702;23.314;2023-06-14T00:51:33;17.20;99.90
20911;DHT22;10615;42.702;23.314;2023-06-14T00:52:34;17.30;99.90
20911;DHT22;10615;42.702;23.314;2023-06-14T00:53:35;17.30;99.90
20911;DHT22;10615;42.702;23.314;2023-06-14T00:54:36;17.30;99.90
20911;DHT22;10615;42.702;23.314;2023-06-14T00:55:36;17.30;99.90
20911;DHT22;10615;42.702;23.314;2023-06-14T00:56:37;17.30;99.90
20911;DHT22;10615;42.702;23.314;2023-06-14T00:57:37;17.30;99.90
20911;DHT22;10615;42.702;23.314;2023-06-14T00:58:38;17.30;99.90
20911;DHT22;10615;42.702;23.314;2023-06-14T00:59:46;17.30;99.90
20911;DHT22;10615;42.702;23.314;2023-06-14T01:00:47;17.30;99.90
20911;DHT22;10615;42.702;23.314;2023-06-14T01:01:48;17.30;99.90
20911;DHT22;10615;42.702;23.314;2023-06-14T01:02:49;17.20;99.90
20911;DHT22;10615;42.702;23.314;2023-06-14T01:03:50;17.20;99.90
20911;DHT22;10615;42.702;23.314;2023-06-14T01:04:51;17.20;99.90
20911;DHT22;10615;42.702;23.314;2023-06-14T01:05:53;17.20;99.90
20911;DHT22;10615;42.702;23.314;2023-06-14T01:07:02;17.20;99.90
20911;DHT22;10615;42.702;23.314;2023-06-14T01:09:25;17.20;99.90
20911;DHT22;10615;42.702;23.314;2023-06-14T01:11:35;17.10;99.90
20911;DHT22;10615;42.702;23.314;2023-06-14T01:13:56;17.10;99.90
20911;DHT22;10615;42.702;23.314;2023-06-14T01:14:57;17.10;99.90
20911;DHT22;10615;42.702;23.314;2023-06-14T01:15:57;17.10;99.90
20911;DHT22;10615;42.702;23.314;2023-06-14T01:16:59;17.10;99.90
20911;DHT22;10615;42.702;23.314;2023-06-14T01:18:00;17.10;99.90
20911;DHT22;10615;42.702;23.314;2023-06-14T01:19:04;17.20;99.90
20911;DHT22;10615;42.702;23.314;2023-06-14T01:20:05;17.20;99.90
20911;DHT22;10615;42.702;23.314;2023-06-14T01:21:20;17.20;99.90
20911;DHT22;10615;42.702;23.314;2023-06-14T01:22:20;17.20;99.90
20911;DHT22;10615;42.702;23.314;2023-06-14T01:23:21;17.20;99.90
20911;DHT22;10615;42.702;23.314;2023-06-14T01:24:22;17.20;99.90
20911;DHT22;10615;42.702;23.314;2023-06-14T01:25:25;17.20;99.90
20911;DHT22;10615;42.702;23.314;2023-06-14T01:26:26;17.20;99.90
20911;DHT22;10615;42.702;23.314;2023-06-14T01:27:29;17.20;99.90
20911;DHT22;10615;42.702;23.314;2023-06-14T01:28:30;17.20;99.90
20911;DHT22;10615;42.702;23.314;2023-06-14T01:29:32;17.20;99.90
20911;DHT22;10615;42.702;23.314;2023-06-14T01:30:33;17.20;99.90
20911;DHT22;10615;42.702;23.314;2023-06-14T01:31:34;17.20;99.90
20911;DHT22;10615;42.702;23.314;2023-06-14T01:32:41;17.20;99.90
20911;DHT22;10615;42.702;23.314;2023-06-14T01:33:42;17.20;99.90
20911;DHT22;10615;42.702;23.314;2023-06-14T01:34:43;17.20;99.90
20911;DHT22;10615;42.702;23.314;2023-06-14T01:35:44;17.20;99.90
20911;DHT22;10615;42.702;23.314;2023-06-14T01:36:45;17.20;99.90
20911;DHT22;10615;42.702;23.314;2023-06-14T01:37:47;17.20;99.90
20911;DHT22;10615;42.702;23.314;2023-06-14T01:38:48;17.20;99.90
20911;DHT22;10615;42.702;23.314;2023-06-14T01:39:50;17.20;99.90
20911;DHT22;10615;42.702;23.314;2023-06-14T01:40:51;17.20;99.90
20911;DHT22;10615;42.702;23.314;2023-06-14T01:41:53;17.20;99.90
20911;DHT22;10615;42.702;23.314;2023-06-14T01:42:53;17.10;99.90
20911;DHT22;10615;42.702;23.314;2023-06-14T01:43:54;17.10;99.90
20911;DHT22;10615;42.702;23.314;2023-06-14T01:44:55;17.10;99.90
20911;DHT22;10615;42.702;23.314;2023-06-14T01:45:56;17.10;99.90
20911;DHT22;10615;42.702;23.314;2023-06-14T01:46:57;17.10;99.90
20911;DHT22;10615;42.702;23.314;2023-06-14T01:47:57;17.10;99.90
20911;DHT22;10615;42.702;23.314;2023-06-14T01:48:58;17.10;99.90
20911;DHT22;10615;42.702;23.314;2023-06-14T01:49:59;17.10;99.90
20911;DHT22;10615;42.702;23.314;2023-06-14T01:50:59;17.00;99.90
20911;DHT22;10615;42.702;23.314;2023-06-14T01:52:00;17.10;99.90
20911;DHT22;10615;42.702;23.314;2023-06-14T01:53:01;17.10;99.90
20911;DHT22;10615;42.702;23.314;2023-06-14T01:54:01;17.00;99.90
20911;DHT22;10615;42.702;23.314;2023-06-14T01:55:02;17.10;99.90
20911;DHT22;10615;42.702;23.314;2023-06-14T01:56:03;17.00;99.90
20911;DHT22;10615;42.702;23.314;2023-06-14T01:57:04;17.00;99.90
20911;DHT22;10615;42.702;23.314;2023-06-14T01:58:04;17.00;99.90
20911;DHT22;10615;42.702;23.314;2023-06-14T01:59:05;17.00;99.90
20911;DHT22;10615;42.702;23.314;2023-06-14T02:00:06;17.10;99.90
20911;DHT22;10615;42.702;23.314;2023-06-14T02:01:08;17.00;99.90
20911;DHT22;10615;42.702;23.314;2023-06-14T02:02:09;17.00;99.90
20911;DHT22;10615;42.702;23.314;2023-06-14T02:03:09;17.10;99.90
20911;DHT22;10615;42.702;23.314;2023-06-14T02:04:11;17.10;99.90
20911;DHT22;10615;42.702;23.314;2023-06-14T02:05:12;17.10;99.90
20911;DHT22;10615;42.702;23.314;2023-06-14T02:06:13;17.10;99.90
20911;DHT22;10615;42.702;23.314;2023-06-14T02:07:14;17.10;99.90
20911;DHT22;10615;42.702;23.314;2023-06-14T02:08:14;17.10;99.90
20911;DHT22;10615;42.702;23.314;2023-06-14T02:09:15;17.10;99.90
20911;DHT22;10615;42.702;23.314;2023-06-14T02:10:16;17.10;99.90
20911;DHT22;10615;42.702;23.314;2023-06-14T02:11:17;17.20;99.90
20911;DHT22;10615;42.702;23.314;2023-06-14T02:12:18;17.20;99.90
20911;DHT22;10615;42.702;23.314;2023-06-14T02:13:18;17.20;99.90
20911;DHT22;10615;42.702;23.314;2023-06-14T02:14:19;17.20;99.90
20911;DHT22;10615;42.702;23.314;2023-06-14T02:15:20;17.20;99.90
20911;DHT22;10615;42.702;23.314;2023-06-14T02:16:22;17.20;99.90
20911;DHT22;10615;42.702;23.314;2023-06-14T02:17:22;17.20;99.90
20911;DHT22;10615;42.702;23.314;2023-06-14T02:18:23;17.20;99.90
20911;DHT22;10615;42.702;23.314;2023-06-14T02:19:23;17.20;99.90
20911;DHT22;10615;42.702;23.314;2023-06-14T02:20:24;17.20;99.90
20911;DHT22;10615;42.702;23.314;2023-06-14T02:21:25;17.20;99.90
20911;DHT22;10615;42.702;23.314;2023-06-14T02:22:25;17.20;99.90
20911;DHT22;10615;42.702;23.314;2023-06-14T02:23:26;17.20;99.90
20911;DHT22;10615;42.702;23.314;2023-06-14T02:24:26;17.20;99.90
20911;DHT22;10615;42.702;23.314;2023-06-14T02:25:27;17.20;99.90
20911;DHT22;10615;42.702;23.314;2023-06-14T02:26:28;17.20;99.90
20911;DHT22;10615;42.702;23.314;2023-06-14T02:27:29;17.20;99.90
20911;DHT22;10615;42.702;23.314;2023-06-14T02:28:29;17.20;99.90
20911;DHT22;10615;42.702;23.314;2023-06-14T02:29:30;17.20;99.90
20911;DHT22;10615;42.702;23.314;2023-06-14T02:30:30;17.20;99.90
20911;DHT22;10615;42.702;23.314;2023-06-14T02:31:31;17.20;99.90
20911;DHT22;10615;42.702;23.314;2023-06-14T02:32:32;17.20;99.90
20911;DHT22;10615;42.702;23.314;2023-06-14T02:33:35;17.20;99.90
20911;DHT22;10615;42.702;23.314;2023-06-14T02:34:36;17.10;99.90
20911;DHT22;10615;42.702;23.314;2023-06-14T02:35:36;17.10;99.90
20911;DHT22;10615;42.702;23.314;2023-06-14T02:36:37;17.10;99.90
20911;DHT22;10615;42.702;23.314;2023-06-14T02:37:41;17.10;99.90
20911;DHT22;10615;42.702;23.314;2023-06-14T02:38:43;17.10;99.90
20911;DHT22;10615;42.702;23.314;2023-06-14T02:39:43;17.10;99.90
20911;DHT22;10615;42.702;23.314;2023-06-14T02:40:44;17.10;99.90
20911;DHT22;10615;42.702;23.314;2023-06-14T02:41:44;17.10;99.90
20911;DHT22;10615;42.702;23.314;2023-06-14T02:42:45;17.10;99.90
20911;DHT22;10615;42.702;23.314;2023-06-14T02:43:46;17.10;99.90
20911;DHT22;10615;42.702;23.314;2023-06-14T02:44:46;17.10;99.90
20911;DHT22;10615;42.702;23.314;2023-06-14T02:45:51;17.10;99.90
20911;DHT22;10615;42.702;23.314;2023-06-14T02:46:52;17.10;99.90
20911;DHT22;10615;42.702;23.314;2023-06-14T02:47:53;17.10;99.90
20911;DHT22;10615;42.702;23.314;2023-06-14T02:48:55;17.10;99.90
20911;DHT22;10615;42.702;23.314;2023-06-14T02:49:56;17.10;99.90
20911;DHT22;10615;42.702;23.314;2023-06-14T02:50:56;17.10;99.90
20911;DHT22;10615;42.702;23.314;2023-06-14T02:51:57;17.10;99.90
20911;DHT22;10615;42.702;23.314;2023-06-14T02:52:58;17.00;99.90
20911;DHT22;10615;42.702;23.314;2023-06-14T02:53:58;17.00;99.90
20911;DHT22;10615;42.702;23.314;2023-06-14T02:54:59;17.00;99.90
20911;DHT22;10615;42.702;23.314;2023-06-14T02:56:00;16.90;99.90
20911;DHT22;10615;42.702;23.314;2023-06-14T02:57:01;16.90;99.90
20911;DHT22;10615;42.702;23.314;2023-06-14T02:58:01;16.90;99.90
20911;DHT22;10615;42.702;23.314;2023-06-14T02:59:02;16.80;99.90
20911;DHT22;10615;42.702;23.314;2023-06-14T03:00:03;16.80;99.90
20911;DHT22;10615;42.702;23.314;2023-06-14T03:01:06;16.70;99.90
20911;DHT22;10615;42.702;23.314;2023-06-14T03:02:08;16.70;99.90
20911;DHT22;10615;42.702;23.314;2023-06-14T03:03:08;16.70;99.90
20911;DHT22;10615;42.702;23.314;2023-06-14T03:04:16;16.70;99.90
20911;DHT22;10615;42.702;23.314;2023-06-14T03:05:16;16.70;99.90
20911;DHT22;10615;42.702;23.314;2023-06-14T03:06:21;16.70;99.90
20911;DHT22;10615;42.702;23.314;2023-06-14T03:07:25;16.70;99.90
20911;DHT22;10615;42.702;23.314;2023-06-14T03:08:27;16.70;99.90
20911;DHT22;10615;42.702;23.314;2023-06-14T03:09:29;16.70;99.90
20911;DHT22;10615;42.702;23.314;2023-06-14T03:10:29;16.70;99.90
20911;DHT22;10615;42.702;23.314;2023-06-14T03:11:30;16.70;99.90
20911;DHT22;10615;42.702;23.314;2023-06-14T03:12:31;16.70;99.90
20911;DHT22;10615;42.702;23.314;2023-06-14T03:13:31;16.70;99.90
20911;DHT22;10615;42.702;23.314;2023-06-14T03:14:32;16.70;99.90
20911;DHT22;10615;42.702;23.314;2023-06-14T03:15:33;16.80;99.90
20911;DHT22;10615;42.702;23.314;2023-06-14T03:16:34;16.80;99.90
20911;DHT22;10615;42.702;23.314;2023-06-14T03:17:35;16.70;99.90
20911;DHT22;10615;42.702;23.314;2023-06-14T03:18:39;16.70;99.90
20911;DHT22;10615;42.702;23.314;2023-06-14T03:19:39;16.80;99.90
20911;DHT22;10615;42.702;23.314;2023-06-14T03:20:41;16.80;99.90
20911;DHT22;10615;42.702;23.314;2023-06-14T03:21:42;16.80;99.90
20911;DHT22;10615;42.702;23.314;2023-06-14T03:22:44;16.90;99.90
20911;DHT22;10615;42.702;23.314;2023-06-14T03:23:46;16.90;99.90
20911;DHT22;10615;42.702;23.314;2023-06-14T03:24:47;16.90;99.90
20911;DHT22;10615;42.702;23.314;2023-06-14T03:25:48;17.00;99.90
20911;DHT22;10615;42.702;23.314;2023-06-14T03:26:48;17.00;99.90
20911;DHT22;10615;42.702;23.314;2023-06-14T03:27:49;17.10;99.90
20911;DHT22;10615;42.702;23.314;2023-06-14T03:28:50;17.10;99.90
20911;DHT22;10615;42.702;23.314;2023-06-14T03:29:50;17.10;99.90
20911;DHT22;10615;42.702;23.314;2023-06-14T03:30:51;17.20;99.90
20911;DHT22;10615;42.702;23.314;2023-06-14T03:32:58;17.20;99.90
20911;DHT22;10615;42.702;23.314;2023-06-14T03:34:01;17.20;99.90
20911;DHT22;10615;42.702;23.314;2023-06-14T03:35:02;17.20;99.90
20911;DHT22;10615;42.702;23.314;2023-06-14T03:36:03;17.20;99.90
20911;DHT22;10615;42.702;23.314;2023-06-14T03:37:03;17.20;99.90
20911;DHT22;10615;42.702;23.314;2023-06-14T03:38:04;17.20;99.90
20911;DHT22;10615;42.702;23.314;2023-06-14T03:39:04;17.20;99.90
20911;DHT22;10615;42.702;23.314;2023-06-14T03:40:05;17.30;99.90
20911;DHT22;10615;42.702;23.314;2023-06-14T03:41:06;17.30;99.90
20911;DHT22;10615;42.702;23.314;2023-06-14T03:42:07;17.30;99.90
20911;DHT22;10615;42.702;23.314;2023-06-14T03:43:07;17.30;99.90
20911;DHT22;10615;42.702;23.314;2023-06-14T03:44:08;17.30;99.90
20911;DHT22;10615;42.702;23.314;2023-06-14T03:45:09;17.40;99.90
20911;DHT22;10615;42.702;23.314;2023-06-14T03:46:10;17.40;99.90
20911;DHT22;10615;42.702;23.314;2023-06-14T03:47:10;17.40;99.90
20911;DHT22;10615;42.702;23.314;2023-06-14T03:48:11;17.40;99.90
20911;DHT22;10615;42.702;23.314;2023-06-14T03:49:12;17.40;99.90
20911;DHT22;10615;42.702;23.314;2023-06-14T03:50:12;17.40;99.90
20911;DHT22;10615;42.702;23.314;2023-06-14T03:51:13;17.40;99.90
20911;DHT22;10615;42.702;23.314;2023-06-14T03:52:13;17.50;99.90
20911;DHT22;10615;42.702;23.314;2023-06-14T03:53:15;17.50;99.90
20911;DHT22;10615;42.702;23.314;2023-06-14T03:54:16;17.50;99.90
20911;DHT22;10615;42.702;23.314;2023-06-14T03:55:16;17.50;99.90
20911;DHT22;10615;42.702;23.314;2023-06-14T03:56:17;17.50;99.90
20911;DHT22;10615;42.702;23.314;2023-06-14T03:57:17;17.50;99.90
20911;DHT22;10615;42.702;23.314;2023-06-14T03:58:18;17.50;99.90
20911;DHT22;10615;42.702;23.314;2023-06-14T03:59:19;17.60;99.90
20911;DHT22;10615;42.702;23.314;2023-06-14T04:00:20;17.60;99.90
20911;DHT22;10615;42.702;23.314;2023-06-14T04:01:20;17.60;99.90
20911;DHT22;10615;42.702;23.314;2023-06-14T04:02:21;17.60;99.90
20911;DHT22;10615;42.702;23.314;2023-06-14T04:03:22;17.70;99.90
20911;DHT22;10615;42.702;23.314;2023-06-14T04:04:25;17.70;99.90
20911;DHT22;10615;42.702;23.314;2023-06-14T04:05:28;17.80;99.90
20911;DHT22;10615;42.702;23.314;2023-06-14T04:06:29;17.90;99.90
20911;DHT22;10615;42.702;23.314;2023-06-14T04:07:33;18.00;99.90
20911;DHT22;10615;42.702;23.314;2023-06-14T04:08:40;18.00;99.90
20911;DHT22;10615;42.702;23.314;2023-06-14T04:09:42;18.10;99.90
20911;DHT22;10615;42.702;23.314;2023-06-14T04:10:43;18.20;99.90
20911;DHT22;10615;42.702;23.314;2023-06-14T04:11:43;18.30;99.90
20911;DHT22;10615;42.702;23.314;2023-06-14T04:12:44;18.40;99.90
20911;DHT22;10615;42.702;23.314;2023-06-14T04:13:44;18.60;99.90
20911;DHT22;10615;42.702;23.314;2023-06-14T04:14:45;18.70;99.90
20911;DHT22;10615;42.702;23.314;2023-06-14T04:15:45;18.80;99.90
20911;DHT22;10615;42.702;23.314;2023-06-14T04:16:46;18.90;99.90
20911;DHT22;10615;42.702;23.314;2023-06-14T04:17:47;18.90;99.90
20911;DHT22;10615;42.702;23.314;2023-06-14T04:18:48;19.00;99.90
20911;DHT22;10615;42.702;23.314;2023-06-14T04:19:51;19.10;99.90
20911;DHT22;10615;42.702;23.314;2023-06-14T04:20:52;19.20;99.90
20911;DHT22;10615;42.702;23.314;2023-06-14T04:21:53;19.30;99.90
20911;DHT22;10615;42.702;23.314;2023-06-14T04:22:56;19.50;99.90
20911;DHT22;10615;42.702;23.314;2023-06-14T04:23:57;19.90;99.90
20911;DHT22;10615;42.702;23.314;2023-06-14T04:24:58;20.40;99.90
20911;DHT22;10615;42.702;23.314;2023-06-14T04:25:59;21.00;99.90
20911;DHT22;10615;42.702;23.314;2023-06-14T04:27:02;21.40;99.90
20911;DHT22;10615;42.702;23.314;2023-06-14T04:28:03;21.90;99.90
20911;DHT22;10615;42.702;23.314;2023-06-14T04:29:04;22.40;99.90
20911;DHT22;10615;42.702;23.314;2023-06-14T04:30:04;23.00;99.90
20911;DHT22;10615;42.702;23.314;2023-06-14T04:31:06;23.40;99.90
20911;DHT22;10615;42.702;23.314;2023-06-14T04:32:08;23.70;99.90
20911;DHT22;10615;42.702;23.314;2023-06-14T04:33:10;23.90;99.10
20911;DHT22;10615;42.702;23.314;2023-06-14T04:34:11;24.10;97.60
20911;DHT22;10615;42.702;23.314;2023-06-14T04:35:16;24.10;96.20
20911;DHT22;10615;42.702;23.314;2023-06-14T04:36:17;24.10;95.20
20911;DHT22;10615;42.702;23.314;2023-06-14T04:37:18;24.10;94.50
20911;DHT22;10615;42.702;23.314;2023-06-14T04:38:19;24.40;94.20
20911;DHT22;10615;42.702;23.314;2023-06-14T04:39:24;24.70;93.50
20911;DHT22;10615;42.702;23.314;2023-06-14T04:40:26;24.90;92.30
20911;DHT22;10615;42.702;23.314;2023-06-14T04:41:26;25.00;91.30
20911;DHT22;10615;42.702;23.314;2023-06-14T04:42:30;25.20;90.90
20911;DHT22;10615;42.702;23.314;2023-06-14T04:43:32;25.60;90.20
20911;DHT22;10615;42.702;23.314;2023-06-14T04:44:38;25.80;88.20
20911;DHT22;10615;42.702;23.314;2023-06-14T04:45:40;25.90;86.20
20911;DHT22;10615;42.702;23.314;2023-06-14T04:46:41;26.20;84.70
20911;DHT22;10615;42.702;23.314;2023-06-14T04:48:00;26.30;83.10
20911;DHT22;10615;42.702;23.314;2023-06-14T04:49:01;26.20;80.60
20911;DHT22;10615;42.702;23.314;2023-06-14T04:50:02;26.00;79.60
20911;DHT22;10615;42.702;23.314;2023-06-14T04:51:03;25.80;79.20
20911;DHT22;10615;42.702;23.314;2023-06-14T04:52:04;25.70;79.40
20911;DHT22;10615;42.702;23.314;2023-06-14T04:53:05;25.50;79.10
20911;DHT22;10615;42.702;23.314;2023-06-14T04:54:06;25.50;79.30
20911;DHT22;10615;42.702;23.314;2023-06-14T04:55:10;25.50;79.80
20911;DHT22;10615;42.702;23.314;2023-06-14T04:56:10;25.70;79.50
20911;DHT22;10615;42.702;23.314;2023-06-14T04:57:11;25.80;78.80
20911;DHT22;10615;42.702;23.314;2023-06-14T04:58:17;25.80;78.20
20911;DHT22;10615;42.702;23.314;2023-06-14T04:59:17;25.70;77.60
20911;DHT22;10615;42.702;23.314;2023-06-14T05:00:19;25.60;77.20
20911;DHT22;10615;42.702;23.314;2023-06-14T05:01:20;25.40;76.90
20911;DHT22;10615;42.702;23.314;2023-06-14T05:02:23;25.30;77.60
20911;DHT22;10615;42.702;23.314;2023-06-14T05:03:24;25.30;77.60
20911;DHT22;10615;42.702;23.314;2023-06-14T05:04:25;25.20;77.10
20911;DHT22;10615;42.702;23.314;2023-06-14T05:05:28;24.80;76.70
20911;DHT22;10615;42.702;23.314;2023-06-14T05:06:29;24.50;77.10
20911;DHT22;10615;42.702;23.314;2023-06-14T05:07:30;24.30;78.30
20911;DHT22;10615;42.702;23.314;2023-06-14T05:08:31;24.10;79.30
20911;DHT22;10615;42.702;23.314;2023-06-14T05:09:31;23.90;80.20
20911;DHT22;10615;42.702;23.314;2023-06-14T05:10:33;23.70;80.70
20911;DHT22;10615;42.702;23.314;2023-06-14T05:11:35;23.40;81.10
20911;DHT22;10615;42.702;23.314;2023-06-14T05:12:35;23.20;82.20
20911;DHT22;10615;42.702;23.314;2023-06-14T05:13:37;23.10;83.30
20911;DHT22;10615;42.702;23.314;2023-06-14T05:14:37;23.00;84.30
20911;DHT22;10615;42.702;23.314;2023-06-14T05:15:38;22.80;85.00
20911;DHT22;10615;42.702;23.314;2023-06-14T05:16:39;22.80;85.80
20911;DHT22;10615;42.702;23.314;2023-06-14T05:17:40;22.90;86.50
20911;DHT22;10615;42.702;23.314;2023-06-14T05:18:41;23.00;86.50
20911;DHT22;10615;42.702;23.314;2023-06-14T05:19:41;23.10;86.30
20911;DHT22;10615;42.702;23.314;2023-06-14T05:20:42;23.30;86.40
20911;DHT22;10615;42.702;23.314;2023-06-14T05:21:42;23.50;86.40
20911;DHT22;10615;42.702;23.314;2023-06-14T05:22:43;23.70;86.00
20911;DHT22;10615;42.702;23.314;2023-06-14T05:23:44;23.90;85.70
20911;DHT22;10615;42.702;23.314;2023-06-14T05:24:45;24.20;85.20
20911;DHT22;10615;42.702;23.314;2023-06-14T05:25:48;24.20;83.80
20911;DHT22;10615;42.702;23.314;2023-06-14T05:26:48;24.40;83.70
20911;DHT22;10615;42.702;23.314;2023-06-14T05:27:49;24.60;83.00
20911;DHT22;10615;42.702;23.314;2023-06-14T05:28:50;24.80;82.10
20911;DHT22;10615;42.702;23.314;2023-06-14T05:29:52;24.80;81.30
20911;DHT22;10615;42.702;23.314;2023-06-14T05:30:56;24.70;80.50
20911;DHT22;10615;42.702;23.314;2023-06-14T05:31:57;24.70;80.20
20911;DHT22;10615;42.702;23.314;2023-06-14T05:32:57;24.60;80.00
20911;DHT22;10615;42.702;23.314;2023-06-14T05:33:58;24.40;80.00
20911;DHT22;10615;42.702;23.314;2023-06-14T05:34:58;24.30;79.80
20911;DHT22;10615;42.702;23.314;2023-06-14T05:35:59;24.10;80.20
20911;DHT22;10615;42.702;23.314;2023-06-14T05:37:00;23.90;80.50
20911;DHT22;10615;42.702;23.314;2023-06-14T05:38:03;23.70;80.90
20911;DHT22;10615;42.702;23.314;2023-06-14T05:39:04;23.60;81.50
20911;DHT22;10615;42.702;23.314;2023-06-14T05:40:06;23.40;81.80
20911;DHT22;10615;42.702;23.314;2023-06-14T05:41:09;23.20;82.20
20911;DHT22;10615;42.702;23.314;2023-06-14T05:42:09;23.00;83.00
20911;DHT22;10615;42.702;23.314;2023-06-14T05:43:11;22.90;83.80
20911;DHT22;10615;42.702;23.314;2023-06-14T05:44:11;22.70;84.60
20911;DHT22;10615;42.702;23.314;2023-06-14T05:45:12;22.60;85.30
20911;DHT22;10615;42.702;23.314;2023-06-14T05:46:13;22.50;86.00
20911;DHT22;10615;42.702;23.314;2023-06-14T05:47:13;22.40;86.80
20911;DHT22;10615;42.702;23.314;2023-06-14T05:48:14;22.40;87.20
20911;DHT22;10615;42.702;23.314;2023-06-14T05:49:14;22.30;87.80
20911;DHT22;10615;42.702;23.314;2023-06-14T05:50:15;22.10;87.80
20911;DHT22;10615;42.702;23.314;2023-06-14T05:51:16;21.90;88.70
20911;DHT22;10615;42.702;23.314;2023-06-14T05:52:19;21.80;89.60
20911;DHT22;10615;42.702;23.314;2023-06-14T05:53:19;21.70;90.20
20911;DHT22;10615;42.702;23.314;2023-06-14T05:54:20;21.60;90.50
20911;DHT22;10615;42.702;23.314;2023-06-14T05:55:21;21.60;90.90
20911;DHT22;10615;42.702;23.314;2023-06-14T05:56:21;21.50;91.20
20911;DHT22;10615;42.702;23.314;2023-06-14T05:57:22;21.40;91.50
20911;DHT22;10615;42.702;23.314;2023-06-14T05:58:23;21.30;91.90
20911;DHT22;10615;42.702;23.314;2023-06-14T05:59:23;21.30;92.20
20911;DHT22;10615;42.702;23.314;2023-06-14T06:00:24;21.30;92.60
20911;DHT22;10615;42.702;23.314;2023-06-14T06:01:24;21.30;92.90
20911;DHT22;10615;42.702;23.314;2023-06-14T06:02:25;21.40;93.20
20911;DHT22;10615;42.702;23.314;2023-06-14T06:03:26;21.30;93.20
20911;DHT22;10615;42.702;23.314;2023-06-14T06:04:29;21.30;93.30
20911;DHT22;10615;42.702;23.314;2023-06-14T06:05:30;21.30;93.60
20911;DHT22;10615;42.702;23.314;2023-06-14T06:06:30;21.40;93.80
20911;DHT22;10615;42.702;23.314;2023-06-14T06:07:31;21.50;94.00
20911;DHT22;10615;42.702;23.314;2023-06-14T06:08:31;21.60;94.00
20911;DHT22;10615;42.702;23.314;2023-06-14T06:09:32;21.70;93.90
20911;DHT22;10615;42.702;23.314;2023-06-14T06:10:33;21.80;93.70
20911;DHT22;10615;42.702;23.314;2023-06-14T06:11:34;21.90;93.40
20911;DHT22;10615;42.702;23.314;2023-06-14T06:12:34;22.00;93.10
20911;DHT22;10615;42.702;23.314;2023-06-14T06:13:35;22.00;93.00
20911;DHT22;10615;42.702;23.314;2023-06-14T06:14:35;22.10;92.90
20911;DHT22;10615;42.702;23.314;2023-06-14T06:15:36;22.10;92.60
20911;DHT22;10615;42.702;23.314;2023-06-14T06:16:36;22.10;92.50
20911;DHT22;10615;42.702;23.314;2023-06-14T06:17:37;22.10;92.70
20911;DHT22;10615;42.702;23.314;2023-06-14T06:18:38;22.20;92.70
20911;DHT22;10615;42.702;23.314;2023-06-14T06:19:39;22.20;92.60
20911;DHT22;10615;42.702;23.314;2023-06-14T06:20:40;22.20;92.60
20911;DHT22;10615;42.702;23.314;2023-06-14T06:21:40;22.20;92.70
20911;DHT22;10615;42.702;23.314;2023-06-14T06:22:41;22.20;92.70
20911;DHT22;10615;42.702;23.314;2023-06-14T06:23:42;22.20;93.10
20911;DHT22;10615;42.702;23.314;2023-06-14T06:24:42;22.20;92.80
20911;DHT22;10615;42.702;23.314;2023-06-14T06:25:43;22.10;92.80